sensor_id;sensor_type;location;lat;lon;timestamp;pressure;altitude;pressure_sealevel;temperature;humidity
54876;BME280;40764;48.472;8.166;2023-06-14T00:04:36;97736.16;;;13.33;55.72
54876;BME280;40764;48.472;8.166;2023-06-14T00:10:39;97736.16;;;13.42;55.23
54876;BME280;40764;48.472;8.166;2023-06-14T00:16:41;97720.50;;;13.43;54.95
54876;BME280;40764;48.472;8.166;2023-06-14T00:22:42;97723.59;;;13.32;56.17
54876;BME280;40764;48.472;8.166;2023-06-14T00:28:42;97723.53;;;13.50;55.35
54876;BME280;40764;48.472;8.166;2023-06-14T00:34:43;97735.00;;;13.00;57.16
54876;BME280;40764;48.472;8.166;2023-06-14T00:40:50;97723.53;;;12.98;57.35
54876;BME280;40764;48.472;8.166;2023-06-14T00:47:00;97728.69;;;12.99;57.03
54876;BME280;40764;48.472;8.166;2023-06-14T00:53:01;97725.00;;;12.87;57.82
54876;BME280;40764;48.472;8.166;2023-06-14T00:59:05;97736.06;;;12.47;58.83
54876;BME280;40764;48.472;8.166;2023-06-14T01:05:06;97729.63;;;12.52;58.02
54876;BME280;40764;48.472;8.166;2023-06-14T01:11:33;97740.28;;;12.62;58.08
54876;BME280;40764;48.472;8.166;2023-06-14T01:17:37;97748.34;;;12.58;58.56
54876;BME280;40764;48.472;8.166;2023-06-14T01:23:41;97739.63;;;12.48;58.81
54876;BME280;40764;48.472;8.166;2023-06-14T01:29:42;97735.38;;;12.33;59.38
54876;BME280;40764;48.472;8.166;2023-06-14T01:35:50;97738.75;;;12.38;59.41
54876;BME280;40764;48.472;8.166;2023-06-14T01:41:51;97744.34;;;12.16;60.27
54876;BME280;40764;48.472;8.166;2023-06-14T01:47:52;97753.13;;;11.96;60.99
54876;BME280;40764;48.472;8.166;2023-06-14T01:53:52;97752.50;;;12.07;60.22
54876;BME280;40764;48.472;8.166;2023-06-14T01:59:53;97750.22;;;12.01;59.94
54876;BME280;40764;48.472;8.166;2023-06-14T02:05:53;97757.94;;;11.90;60.66
54876;BME280;40764;48.472;8.166;2023-06-14T02:12:25;97753.44;;;11.94;60.65
54876;BME280;40764;48.472;8.166;2023-06-14T02:18:26;97760.38;;;12.00;60.07
54876;BME280;40764;48.472;8.166;2023-06-14T02:24:26;97756.47;;;11.93;60.40
54876;BME280;40764;48.472;8.166;2023-06-14T02:30:26;97749.44;;;11.56;62.09
54876;BME280;40764;48.472;8.166;2023-06-14T02:36:27;97746.50;;;11.43;62.36
54876;BME280;40764;48.472;8.166;2023-06-14T02:42:29;97748.91;;;11.45;63.04
54876;BME280;40764;48.472;8.166;2023-06-14T02:48:30;97750.53;;;11.46;61.65
54876;BME280;40764;48.472;8.166;2023-06-14T02:54:30;97754.06;;;11.46;62.16
54876;BME280;40764;48.472;8.166;2023-06-14T03:00:31;97763.16;;;11.33;62.98
54876;BME280;40764;48.472;8.166;2023-06-14T03:06:31;97760.28;;;11.16;63.02
54876;BME280;40764;48.472;8.166;2023-06-14T03:12:32;97760.97;;;11.22;62.96
54876;BME280;40764;48.472;8.166;2023-06-14T03:18:32;97758.41;;;11.03;63.66
54876;BME280;40764;48.472;8.166;2023-06-14T03:24:35;97770.47;;;11.24;62.55
54876;BME280;40764;48.472;8.166;2023-06-14T03:30:36;97767.31;;;11.08;62.83
54876;BME280;40764;48.472;8.166;2023-06-14T03:36:37;97773.22;;;11.02;63.74
54876;BME280;40764;48.472;8.166;2023-06-14T03:42:38;97774.91;;;11.11;63.93
54876;BME280;40764;48.472;8.166;2023-06-14T04:09:38;97793.47;;;11.23;63.77
54876;BME280;40764;48.472;8.166;2023-06-14T04:15:39;97796.34;;;11.18;64.42
54876;BME280;40764;48.472;8.166;2023-06-14T04:21:42;97800.78;;;11.28;64.30
54876;BME280;40764;48.472;8.166;2023-06-14T04:27:42;97801.66;;;11.37;64.74
54876;BME280;40764;48.472;8.166;2023-06-14T04:33:43;97803.84;;;11.48;64.58
54876;BME280;40764;48.472;8.166;2023-06-14T04:39:43;97808.13;;;11.63;65.34
54876;BME280;40764;48.472;8.166;2023-06-14T04:45:44;97810.94;;;11.72;66.18
54876;BME280;40764;48.472;8.166;2023-06-14T04:51:46;97815.25;;;11.87;64.63
54876;BME280;40764;48.472;8.166;2023-06-14T04:57:51;97815.47;;;11.99;65.21
54876;BME280;40764;48.472;8.166;2023-06-14T05:03:53;97824.66;;;12.25;66.72
54876;BME280;40764;48.472;8.166;2023-06-14T05:09:53;97814.38;;;12.39;65.07
54876;BME280;40764;48.472;8.166;2023-06-14T05:15:53;97817.53;;;12.64;64.67
54876;BME280;40764;48.472;8.166;2023-06-14T05:21:54;97810.03;;;12.95;61.42
54876;BME280;40764;48.472;8.166;2023-06-14T05:27:54;97813.09;;;12.94;61.87
54876;BME280;40764;48.472;8.166;2023-06-14T05:33:54;97803.03;;;13.38;60.44
54876;BME280;40764;48.472;8.166;2023-06-14T05:39:55;97817.41;;;13.60;60.69
54876;BME280;40764;48.472;8.166;2023-06-14T05:45:55;97818.00;;;13.92;59.56
54876;BME280;40764;48.472;8.166;2023-06-14T05:51:55;97808.66;;;14.31;57.06
54876;BME280;40764;48.472;8.166;2023-06-14T05:57:56;97811.09;;;14.71;55.62
54876;BME280;40764;48.472;8.166;2023-06-14T06:03:56;97814.03;;;15.04;54.50
54876;BME280;40764;48.472;8.166;2023-06-14T06:09:57;97813.31;;;15.36;53.80
54876;BME280;40764;48.472;8.166;2023-06-14T06:15:57;97828.31;;;15.68;52.66
54876;BME280;40764;48.472;8.166;2023-06-14T06:21:57;97829.06;;;15.90;51.04
54876;BME280;40764;48.472;8.166;2023-06-14T06:27:58;97828.47;;;16.17;51.05
54876;BME280;40764;48.472;8.166;2023-06-14T06:33:58;97824.88;;;16.50;51.09
54876;BME280;40764;48.472;8.166;2023-06-14T06:39:58;97830.78;;;16.85;49.39
54876;BME280;40764;48.472;8.166;2023-06-14T06:45:59;97828.81;;;17.10;50.43
54876;BME280;40764;48.472;8.166;2023-06-14T06:52:04;97831.25;;;17.51;49.89
54876;BME280;40764;48.472;8.166;2023-06-14T06:58:04;97824.94;;;17.91;49.03
54876;BME280;40764;48.472;8.166;2023-06-14T07:04:05;97829.75;;;18.22;47.49
54876;BME280;40764;48.472;8.166;2023-06-14T07:10:06;97825.50;;;18.56;46.61
54876;BME280;40764;48.472;8.166;2023-06-14T07:16:07;97835.72;;;18.83;45.97
54876;BME280;40764;48.472;8.166;2023-06-14T07:22:07;97830.00;;;19.27;45.00
54876;BME280;40764;48.472;8.166;2023-06-14T07:28:08;97825.56;;;19.58;44.29
54876;BME280;40764;48.472;8.166;2023-06-14T07:34:08;97834.06;;;19.84;41.54
54876;BME280;40764;48.472;8.166;2023-06-14T07:40:09;97839.56;;;20.23;40.35
54876;BME280;40764;48.472;8.166;2023-06-14T07:46:10;97840.13;;;20.51;38.63
54876;BME280;40764;48.472;8.166;2023-06-14T07:52:10;97835.91;;;21.07;38.07
54876;BME280;40764;48.472;8.166;2023-06-14T07:58:11;97837.63;;;21.68;32.58
54876;BME280;40764;48.472;8.166;2023-06-14T08:04:12;97836.78;;;21.97;30.86
54876;BME280;40764;48.472;8.166;2023-06-14T08:10:13;97829.75;;;22.37;30.79
54876;BME280;40764;48.472;8.166;2023-06-14T08:16:13;97830.84;;;22.29;31.04
54876;BME280;40764;48.472;8.166;2023-06-14T08:22:13;97820.13;;;22.31;32.89
54876;BME280;40764;48.472;8.166;2023-06-14T08:28:14;97827.41;;;22.42;33.15
54876;BME280;40764;48.472;8.166;2023-06-14T08:34:14;97833.06;;;22.90;30.21
54876;BME280;40764;48.472;8.166;2023-06-14T08:40:21;97824.16;;;22.77;28.09
54876;BME280;40764;48.472;8.166;2023-06-14T08:46:25;97833.31;;;23.22;29.47
54876;BME280;40764;48.472;8.166;2023-06-14T08:52:30;97833.94;;;23.01;33.22
54876;BME280;40764;48.472;8.166;2023-06-14T08:58:33;97832.88;;;22.72;35.20
54876;BME280;40764;48.472;8.166;2023-06-14T09:04:34;97836.84;;;22.71;35.71
54876;BME280;40764;48.472;8.166;2023-06-14T09:10:36;97844.06;;;22.79;35.62
54876;BME280;40764;48.472;8.166;2023-06-14T09:16:37;97852.78;;;22.74;35.31
54876;BME280;40764;48.472;8.166;2023-06-14T09:22:37;97850.81;;;22.78;35.93
54876;BME280;40764;48.472;8.166;2023-06-14T09:28:42;97854.19;;;22.95;36.13
54876;BME280;40764;48.472;8.166;2023-06-14T09:34:47;97853.91;;;23.10;35.69
54876;BME280;40764;48.472;8.166;2023-06-14T09:40:49;97867.53;;;23.19;34.97
54876;BME280;40764;48.472;8.166;2023-06-14T09:46:50;97859.06;;;23.08;35.29
54876;BME280;40764;48.472;8.166;2023-06-14T09:52:52;97852.19;;;23.43;35.08
54876;BME280;40764;48.472;8.166;2023-06-14T09:58:55;97856.81;;;23.79;34.62
54876;BME280;40764;48.472;8.166;2023-06-14T10:05:15;97846.50;;;23.94;34.02
54876;BME280;40764;48.472;8.166;2023-06-14T10:11:17;97844.56;;;24.05;33.27
54876;BME280;40764;48.472;8.166;2023-06-14T10:17:51;97849.09;;;24.42;33.38
54876;BME280;40764;48.472;8.166;2023-06-14T10:23:56;97855.13;;;24.73;34.18
54876;BME280;40764;48.472;8.166;2023-06-14T10:30:05;97851.16;;;24.81;33.88
54876;BME280;40764;48.472;8.166;2023-06-14T10:36:10;97845.19;;;25.04;32.34
54876;BME280;40764;48.472;8.166;2023-06-14T10:42:11;97826.41;;;24.97;32.38
54876;BME280;40764;48.472;8.166;2023-06-14T10:48:22;97830.44;;;25.03;31.89
54876;BME280;40764;48.472;8.166;2023-06-14T10:54:29;97839.56;;;24.75;33.64
54876;BME280;40764;48.472;8.166;2023-06-14T11:00:33;97848.41;;;25.06;32.44
54876;BME280;40764;48.472;8.166;2023-06-14T11:06:49;97834.00;;;24.89;32.71
54876;BME280;40764;48.472;8.166;2023-06-14T11:12:54;97823.97;;;25.52;32.52
54876;BME280;40764;48.472;8.166;2023-06-14T11:18:55;97829.19;;;25.40;31.26
54876;BME280;40764;48.472;8.166;2023-06-14T11:24:55;97820.41;;;25.34;31.41
54876;BME280;40764;48.472;8.166;2023-06-14T11:31:01;97820.41;;;25.30;31.17
54876;BME280;40764;48.472;8.166;2023-06-14T11:37:02;97821.25;;;24.99;31.38
54876;BME280;40764;48.472;8.166;2023-06-14T11:43:02;97826.00;;;24.74;31.36
54876;BME280;40764;48.472;8.166;2023-06-14T11:49:03;97802.25;;;25.96;32.22
54876;BME280;40764;48.472;8.166;2023-06-14T11:55:05;97807.69;;;26.28;29.31
54876;BME280;40764;48.472;8.166;2023-06-14T12:01:06;97807.44;;;26.04;29.17
54876;BME280;40764;48.472;8.166;2023-06-14T12:07:14;97801.94;;;26.56;28.79
54876;BME280;40764;48.472;8.166;2023-06-14T12:13:17;97806.38;;;25.59;29.48
54876;BME280;40764;48.472;8.166;2023-06-14T12:19:17;97806.91;;;26.34;28.22
54876;BME280;40764;48.472;8.166;2023-06-14T12:25:26;97796.16;;;26.18;28.97
54876;BME280;40764;48.472;8.166;2023-06-14T12:31:27;97798.53;;;26.20;28.42
54876;BME280;40764;48.472;8.166;2023-06-14T12:37:27;97790.59;;;26.77;28.54
54876;BME280;40764;48.472;8.166;2023-06-14T12:43:27;97791.28;;;26.92;28.38
54876;BME280;40764;48.472;8.166;2023-06-14T12:49:28;97793.81;;;26.06;29.01
54876;BME280;40764;48.472;8.166;2023-06-14T12:55:29;97808.06;;;26.40;28.38
54876;BME280;40764;48.472;8.166;2023-06-14T13:01:29;97810.66;;;26.72;28.61
54876;BME280;40764;48.472;8.166;2023-06-14T13:07:29;97799.22;;;27.01;28.61
54876;BME280;40764;48.472;8.166;2023-06-14T13:13:30;97789.63;;;27.02;27.87
54876;BME280;40764;48.472;8.166;2023-06-14T13:19:30;97793.91;;;27.13;27.83
54876;BME280;40764;48.472;8.166;2023-06-14T13:25:31;97790.34;;;26.54;28.45
54876;BME280;40764;48.472;8.166;2023-06-14T13:31:32;97793.38;;;27.29;27.61
54876;BME280;40764;48.472;8.166;2023-06-14T13:37:32;97803.44;;;27.64;27.03
54876;BME280;40764;48.472;8.166;2023-06-14T13:43:33;97809.31;;;26.88;28.08
54876;BME280;40764;48.472;8.166;2023-06-14T13:49:33;97795.75;;;26.82;27.63
54876;BME280;40764;48.472;8.166;2023-06-14T13:55:35;97796.75;;;27.89;26.27
54876;BME280;40764;48.472;8.166;2023-06-14T14:01:35;97790.69;;;28.21;26.04
54876;BME280;40764;48.472;8.166;2023-06-14T14:07:35;97801.38;;;28.02;25.65
54876;BME280;40764;48.472;8.166;2023-06-14T14:13:36;97807.69;;;27.80;26.07
54876;BME280;40764;48.472;8.166;2023-06-14T14:19:36;97801.03;;;28.58;25.62
54876;BME280;40764;48.472;8.166;2023-06-14T14:25:37;97803.28;;;28.70;25.02
54876;BME280;40764;48.472;8.166;2023-06-14T14:31:37;97793.34;;;28.35;25.87
54876;BME280;40764;48.472;8.166;2023-06-14T14:37:37;97780.16;;;27.98;26.76
54876;BME280;40764;48.472;8.166;2023-06-14T14:43:38;97798.13;;;28.92;27.80
54876;BME280;40764;48.472;8.166;2023-06-14T14:49:38;97793.25;;;30.02;24.18
54876;BME280;40764;48.472;8.166;2023-06-14T14:55:39;97805.72;;;28.95;25.56
54876;BME280;40764;48.472;8.166;2023-06-14T15:01:41;97798.44;;;29.21;25.83
54876;BME280;40764;48.472;8.166;2023-06-14T15:07:41;97802.06;;;29.21;25.49
54876;BME280;40764;48.472;8.166;2023-06-14T15:13:42;97824.19;;;28.69;26.20
54876;BME280;40764;48.472;8.166;2023-06-14T15:19:42;97812.94;;;28.69;26.02
54876;BME280;40764;48.472;8.166;2023-06-14T15:25:42;97815.38;;;28.40;26.49
54876;BME280;40764;48.472;8.166;2023-06-14T15:31:43;97829.56;;;28.56;26.32
54876;BME280;40764;48.472;8.166;2023-06-14T15:37:43;97819.91;;;28.84;26.06
54876;BME280;40764;48.472;8.166;2023-06-14T15:43:43;97813.97;;;29.06;25.65
54876;BME280;40764;48.472;8.166;2023-06-14T15:49:44;97815.22;;;29.91;24.45
54876;BME280;40764;48.472;8.166;2023-06-14T15:55:44;97803.31;;;30.03;24.67
54876;BME280;40764;48.472;8.166;2023-06-14T16:01:44;97814.81;;;29.03;25.59
54876;BME280;40764;48.472;8.166;2023-06-14T16:07:45;97821.06;;;29.60;24.54
54876;BME280;40764;48.472;8.166;2023-06-14T16:13:45;97818.19;;;29.84;24.54
54876;BME280;40764;48.472;8.166;2023-06-14T16:19:45;97829.13;;;30.21;23.59
54876;BME280;40764;48.472;8.166;2023-06-14T16:25:46;97833.88;;;30.44;24.24
54876;BME280;40764;48.472;8.166;2023-06-14T16:31:46;97817.19;;;30.86;23.26
54876;BME280;40764;48.472;8.166;2023-06-14T16:37:46;97834.63;;;31.79;21.80
54876;BME280;40764;48.472;8.166;2023-06-14T16:43:47;97832.53;;;31.50;21.66
54876;BME280;40764;48.472;8.166;2023-06-14T16:49:47;97826.47;;;31.52;22.29
54876;BME280;40764;48.472;8.166;2023-06-14T16:55:48;97832.88;;;30.87;22.40
54876;BME280;40764;48.472;8.166;2023-06-14T17:01:51;97841.53;;;31.61;21.50
54876;BME280;40764;48.472;8.166;2023-06-14T17:07:55;97850.53;;;30.55;22.94
54876;BME280;40764;48.472;8.166;2023-06-14T17:13:55;97863.13;;;30.70;22.66
54876;BME280;40764;48.472;8.166;2023-06-14T17:19:55;97873.09;;;30.55;22.57
54876;BME280;40764;48.472;8.166;2023-06-14T17:25:56;97872.66;;;30.93;21.76
54876;BME280;40764;48.472;8.166;2023-06-14T17:31:56;97872.31;;;30.91;21.38
54876;BME280;40764;48.472;8.166;2023-06-14T17:37:56;97896.31;;;30.03;22.90
54876;BME280;40764;48.472;8.166;2023-06-14T17:43:57;97896.72;;;30.81;22.29
54876;BME280;40764;48.472;8.166;2023-06-14T17:49:57;97897.41;;;30.69;22.46
54876;BME280;40764;48.472;8.166;2023-06-14T17:56:01;97913.47;;;30.12;23.54
54876;BME280;40764;48.472;8.166;2023-06-14T18:02:03;97917.25;;;31.50;22.43
54876;BME280;40764;48.472;8.166;2023-06-14T18:08:03;97914.72;;;32.17;21.67
54876;BME280;40764;48.472;8.166;2023-06-14T18:14:06;97919.59;;;32.58;20.31
54876;BME280;40764;48.472;8.166;2023-06-14T18:20:07;97938.97;;;32.60;21.95
54876;BME280;40764;48.472;8.166;2023-06-14T18:26:07;97939.50;;;31.64;21.17
54876;BME280;40764;48.472;8.166;2023-06-14T18:32:08;97944.44;;;30.32;21.82
54876;BME280;40764;48.472;8.166;2023-06-14T18:38:08;97946.63;;;30.44;22.60
54876;BME280;40764;48.472;8.166;2023-06-14T18:44:09;97959.28;;;30.16;23.54
54876;BME280;40764;48.472;8.166;2023-06-14T18:50:09;97965.34;;;29.41;24.55
54876;BME280;40764;48.472;8.166;2023-06-14T18:56:10;97973.09;;;25.81;29.69
54876;BME280;40764;48.472;8.166;2023-06-14T19:02:10;97968.97;;;24.97;31.08
54876;BME280;40764;48.472;8.166;2023-06-14T19:08:10;97971.22;;;24.56;32.24
54876;BME280;40764;48.472;8.166;2023-06-14T19:14:11;97986.00;;;23.87;33.48
54876;BME280;40764;48.472;8.166;2023-06-14T19:20:11;97985.59;;;22.97;35.77
54876;BME280;40764;48.472;8.166;2023-06-14T19:26:11;97999.31;;;22.19;39.05
54876;BME280;40764;48.472;8.166;2023-06-14T19:32:12;98008.06;;;21.68;39.83
54876;BME280;40764;48.472;8.166;2023-06-14T19:38:12;98017.56;;;21.41;39.74
54876;BME280;40764;48.472;8.166;2023-06-14T19:44:13;98025.03;;;20.75;42.21
54876;BME280;40764;48.472;8.166;2023-06-14T19:50:13;98035.06;;;20.41;43.75
54876;BME280;40764;48.472;8.166;2023-06-14T19:56:13;98043.50;;;19.78;44.29
54876;BME280;40764;48.472;8.166;2023-06-14T20:02:14;98048.06;;;19.70;44.31
54876;BME280;40764;48.472;8.166;2023-06-14T20:08:14;98057.78;;;19.48;46.31
54876;BME280;40764;48.472;8.166;2023-06-14T20:14:22;98065.34;;;19.36;46.10
54876;BME280;40764;48.472;8.166;2023-06-14T20:20:22;98067.50;;;19.11;47.68
54876;BME280;40764;48.472;8.166;2023-06-14T20:26:22;98071.38;;;18.66;47.98
54876;BME280;40764;48.472;8.166;2023-06-14T20:32:23;98079.09;;;18.48;48.72
54876;BME280;40764;48.472;8.166;2023-06-14T20:38:23;98086.09;;;18.06;49.83
54876;BME280;40764;48.472;8.166;2023-06-14T20:44:23;98084.38;;;17.89;50.12
54876;BME280;40764;48.472;8.166;2023-06-14T20:50:29;98087.25;;;17.80;50.75
54876;BME280;40764;48.472;8.166;2023-06-14T20:56:29;98088.53;;;17.83;50.97
54876;BME280;40764;48.472;8.166;2023-06-14T21:02:30;98091.50;;;17.65;50.75
54876;BME280;40764;48.472;8.166;2023-06-14T21:08:30;98083.63;;;17.43;51.85
54876;BME280;40764;48.472;8.166;2023-06-14T21:14:31;98090.38;;;17.33;52.57
54876;BME280;40764;48.472;8.166;2023-06-14T21:20:31;98088.06;;;17.23;53.32
54876;BME280;40764;48.472;8.166;2023-06-14T21:26:32;98085.41;;;16.82;55.10
54876;BME280;40764;48.472;8.166;2023-06-14T21:32:34;98086.34;;;16.65;55.73
54876;BME280;40764;48.472;8.166;2023-06-14T21:38:39;98089.38;;;16.51;56.29
54876;BME280;40764;48.472;8.166;2023-06-14T21:44:40;98086.41;;;16.35;56.76
54876;BME280;40764;48.472;8.166;2023-06-14T21:50:41;98091.66;;;16.28;57.25
54876;BME280;40764;48.472;8.166;2023-06-14T21:56:42;98098.34;;;16.19;57.52
54876;BME280;40764;48.472;8.166;2023-06-14T22:02:42;98099.78;;;16.25;57.34
54876;BME280;40764;48.472;8.166;2023-06-14T22:08:42;98096.25;;;16.16;57.88
54876;BME280;40764;48.472;8.166;2023-06-14T22:14:44;98099.75;;;16.04;57.74
54876;BME280;40764;48.472;8.166;2023-06-14T22:20:48;98103.97;;;16.01;57.77
54876;BME280;40764;48.472;8.166;2023-06-14T22:26:49;98098.84;;;15.62;59.92
54876;BME280;40764;48.472;8.166;2023-06-14T22:32:50;98106.94;;;15.49;60.24
54876;BME280;40764;48.472;8.166;2023-06-14T22:38:53;98098.97;;;15.57;59.75
54876;BME280;40764;48.472;8.166;2023-06-14T22:44:53;98105.63;;;15.56;60.07
54876;BME280;40764;48.472;8.166;2023-06-14T22:50:54;98092.06;;;15.42;61.04
54876;BME280;40764;48.472;8.166;2023-06-14T22:56:54;98097.44;;;15.30;60.74
54876;BME280;40764;48.472;8.166;2023-06-14T23:02:57;98096.53;;;15.00;62.84
54876;BME280;40764;48.472;8.166;2023-06-14T23:08:57;98098.81;;;15.06;62.41
54876;BME280;40764;48.472;8.166;2023-06-14T23:15:00;98088.47;;;14.95;62.61
54876;BME280;40764;48.472;8.166;2023-06-14T23:21:04;98084.13;;;14.76;64.22
54876;BME280;40764;48.472;8.166;2023-06-14T23:27:05;98089.31;;;14.78;63.47
54876;BME280;40764;48.472;8.166;2023-06-14T23:33:06;98087.00;;;14.88;63.10
54876;BME280;40764;48.472;8.166;2023-06-14T23:39:07;98089.63;;;14.59;64.63
54876;BME280;40764;48.472;8.166;2023-06-14T23:45:07;98088.97;;;14.62;63.78
54876;BME280;40764;48.472;8.166;2023-06-14T23:51:09;98080.72;;;14.53;64.86
54876;BME280;40764;48.472;8.166;2023-06-14T23:57:10;98081.38;;;14.50;64.64
